createdAt,value
2019-05-14T00:46:31.610Z,0.70
2019-05-14T00:56:33.326Z,0.80
2019-05-14T01:06:34.755Z,0.60
2019-05-14T01:16:36.197Z,0.60
2019-05-14T01:26:37.621Z,0.50
2019-05-14T01:36:41.200Z,0.10
2019-05-14T01:46:42.552Z,-0.10
2019-05-14T01:56:44.124Z,-0.10
2019-05-14T02:06:45.713Z,-0.20
2019-05-14T02:16:47.173Z,-0.10
2019-05-14T02:26:48.577Z,-0.30
2019-05-14T02:36:50.050Z,-0.40
2019-05-14T02:46:52.669Z,-0.40
2019-05-14T02:56:54.102Z,0.40
2019-05-14T03:06:55.538Z,0.70
2019-05-14T03:16:59.434Z,0.20
2019-05-14T03:27:00.821Z,-0.10
2019-05-14T03:37:03.859Z,-0.40
2019-05-14T03:47:09.987Z,-0.50
2019-05-14T03:57:09.817Z,0.10
2019-05-14T04:07:12.481Z,-0.20
2019-05-14T04:17:31.667Z,-0.20
2019-05-14T04:27:23.818Z,0.60
2019-05-14T04:37:28.810Z,0.50
2019-05-14T04:47:36.007Z,0.40
2019-05-14T04:57:33.044Z,0.50
2019-05-14T05:07:34.460Z,0.70
2019-05-14T05:17:44.207Z,1.20
2019-05-14T05:27:40.395Z,1.20
2019-05-14T05:37:41.825Z,2.40
2019-05-14T05:47:54.433Z,2.50
2019-05-14T05:57:49.059Z,6.70
2019-05-14T06:07:50.065Z,10.90
2019-05-14T06:17:51.697Z,14.00
2019-05-14T06:27:53.313Z,15.30
2019-05-14T06:37:55.040Z,15.70
2019-05-14T06:47:56.509Z,15.80
2019-05-14T06:57:58.499Z,16.50
2019-05-14T07:08:00.114Z,17.40
2019-05-14T07:18:01.545Z,17.50
2019-05-14T07:28:03.117Z,17.70
2019-05-14T07:38:04.540Z,16.80
2019-05-14T07:48:05.988Z,17.60
2019-05-14T07:58:09.459Z,16.80
2019-05-14T08:08:11.085Z,17.80
2019-05-14T08:18:14.372Z,17.50
2019-05-14T08:28:18.305Z,17.40
2019-05-14T08:38:19.486Z,18.70
2019-05-14T08:48:20.935Z,17.90
2019-05-14T08:58:22.607Z,20.40
2019-05-14T09:08:24.227Z,18.60
2019-05-14T09:18:25.699Z,17.40
2019-05-14T09:28:28.475Z,19.60
2019-05-14T09:38:30.184Z,17.50
2019-05-14T09:48:31.614Z,17.60
2019-05-14T09:58:34.376Z,17.50
2019-05-14T10:08:35.991Z,14.20
2019-05-14T10:18:38.011Z,17.50
2019-05-14T10:28:43.424Z,14.20
2019-05-14T10:38:44.406Z,15.00
2019-05-14T10:48:46.043Z,12.60
2019-05-14T10:58:49.110Z,13.70
2019-05-14T11:08:50.935Z,18.30
2019-05-14T11:18:52.474Z,19.50
2019-05-14T11:28:53.924Z,17.80
2019-05-14T11:38:55.450Z,16.50
2019-05-14T11:48:59.437Z,16.40
2019-05-14T11:59:00.377Z,16.20
2019-05-14T12:09:04.614Z,14.90
2019-05-14T12:19:06.592Z,14.90
2019-05-14T12:29:09.888Z,14.20
2019-05-14T12:39:11.405Z,13.40
2019-05-14T12:49:13.045Z,13.40
2019-05-14T12:59:14.599Z,14.60
2019-05-14T13:09:20.792Z,14.50
2019-05-14T13:19:19.509Z,12.20
2019-05-14T13:29:21.063Z,12.30
2019-05-14T13:39:22.498Z,13.60
2019-05-14T13:49:23.920Z,12.60
2019-05-14T13:59:25.497Z,12.20
2019-05-14T14:09:28.415Z,12.50
2019-05-14T14:19:30.504Z,13.20
2019-05-14T14:29:32.158Z,13.90
2019-05-14T14:39:34.737Z,13.30
2019-05-14T14:49:36.196Z,13.20
2019-05-14T14:59:39.166Z,14.10
2019-05-14T15:09:40.830Z,13.10
2019-05-14T15:19:43.910Z,12.60
2019-05-14T15:29:45.502Z,13.40
2019-05-14T15:39:49.070Z,12.50
2019-05-14T15:49:52.967Z,12.00
2019-05-14T15:59:54.480Z,12.70
2019-05-14T16:09:55.935Z,12.70
2019-05-14T16:19:57.699Z,12.60
2019-05-14T16:29:59.172Z,12.50
2019-05-14T16:40:00.738Z,12.00
2019-05-14T16:50:08.692Z,11.90
2019-05-14T17:00:10.268Z,12.00
2019-05-14T17:10:12.873Z,11.50
2019-05-14T17:20:14.566Z,11.80
2019-05-14T17:30:18.249Z,11.20
2019-05-14T17:40:19.792Z,10.40
2019-05-14T17:50:21.248Z,10.30
2019-05-14T18:00:23.307Z,10.20
2019-05-14T18:10:25.085Z,9.80
2019-05-14T18:20:28.663Z,9.10
2019-05-14T18:30:30.088Z,8.60
2019-05-14T18:40:31.537Z,8.10
2019-05-14T18:50:33.210Z,7.50
2019-05-14T19:00:34.870Z,7.10
2019-05-14T19:10:39.029Z,7.10
2019-05-14T19:20:40.002Z,6.90
2019-05-14T19:30:41.867Z,6.80
2019-05-14T19:40:43.465Z,6.30
2019-05-14T19:50:44.885Z,6.10
2019-05-14T20:00:48.692Z,5.20
2019-05-14T20:10:49.908Z,4.60
2019-05-14T20:20:51.948Z,4.30
2019-05-14T20:30:53.364Z,4.00
2019-05-14T20:40:54.933Z,3.50
2019-05-14T20:50:58.452Z,3.10
2019-05-14T21:01:00.138Z,2.70
2019-05-14T21:11:01.892Z,2.40
2019-05-14T21:21:03.421Z,2.00
2019-05-14T21:31:05.052Z,1.60
2019-05-14T21:41:06.477Z,1.40
2019-05-14T21:51:08.741Z,1.30
2019-05-14T22:01:10.577Z,1.30
2019-05-14T22:11:12.109Z,1.00
2019-05-14T22:21:13.545Z,0.80
2019-05-14T22:31:17.085Z,0.70
2019-05-14T22:41:18.597Z,0.50
2019-05-14T22:51:20.233Z,0.70
2019-05-14T23:01:21.757Z,1.00
2019-05-14T23:11:23.287Z,1.70
2019-05-14T23:21:24.715Z,2.20
2019-05-14T23:31:28.342Z,2.10
2019-05-14T23:41:29.683Z,1.70
2019-05-14T23:51:31.259Z,1.30
